Terminal Aerodrome Forecast
Issued by NWS Upton, NY

Home | Current Version | Previous Version | Text Only | Print | Product List | Glossary On
Versions: 1 2 3 4 5 6 7 8 9 10 11 12 13 14 15 16 17 18 19 20 21 22 23 24 25 26 27 28 29 30 31 32 33 34
000
FTUS41 KOKX 152335
TAFEWR
TAF
KEWR 152335Z 1600/1706 29006KT 3SM -SN SCT015 OVC025
      TEMPO 1600/1601 2SM -SN BR BKN015 OVC025
     FM160100 28008KT P6SM SCT035 BKN070
     FM160400 28011KT P6SM SCT120
     FM160700 27014KT P6SM SCT250
     FM161400 26014G23KT P6SM SCT040 SCT120
     FM161600 26017G26KT P6SM VCSH BKN040 BKN120
     FM162100 26013KT P6SM BKN040 BKN120
     FM170000 32010KT P6SM BKN050=

USA.gov is the U.S. government's official web portal to all federal, state and local government web resources and services.